createdAt,value
2023-04-29T00:02:58.608Z,74.08
2023-04-29T00:06:02.134Z,74.25
2023-04-29T00:09:04.874Z,74.31
2023-04-29T00:12:07.703Z,73.72
2023-04-29T00:15:10.921Z,74.01
2023-04-29T00:18:14.467Z,76.21
2023-04-29T00:21:17.285Z,75.37
2023-04-29T00:24:20.435Z,77.53
2023-04-29T00:27:23.068Z,78.14
2023-04-29T00:30:25.961Z,77.00
2023-04-29T00:33:28.798Z,79.55
2023-04-29T00:36:32.759Z,78.83
2023-04-29T00:39:35.464Z,77.23
2023-04-29T00:42:40.516Z,76.83
2023-04-29T00:45:43.948Z,77.35
2023-04-29T00:48:46.687Z,76.42
2023-04-29T00:51:50.362Z,75.57
2023-04-29T00:54:53.015Z,75.38
2023-04-29T00:57:56.419Z,76.48
2023-04-29T01:01:00.810Z,76.20
2023-04-29T01:04:05.715Z,76.36
2023-04-29T01:07:18.477Z,76.32
2023-04-29T01:10:30.129Z,76.65
2023-04-29T01:13:40.440Z,75.76
2023-04-29T01:16:49.556Z,74.91
2023-04-29T01:19:57.977Z,75.51
2023-04-29T01:23:01.555Z,76.00
2023-04-29T01:26:06.221Z,76.28
2023-04-29T01:29:51.631Z,78.34
2023-04-29T01:33:04.918Z,79.03
2023-04-29T01:36:46.996Z,79.66
2023-04-29T01:40:17.566Z,77.21
2023-04-29T01:43:34.516Z,76.68
2023-04-29T01:46:54.248Z,77.19
2023-04-29T01:50:00.380Z,77.26
2023-04-29T01:53:03.190Z,79.44
2023-04-29T01:56:07.388Z,77.32
2023-04-29T01:59:34.052Z,80.66
2023-04-29T02:02:42.653Z,82.37
2023-04-29T02:05:59.884Z,82.38
2023-04-29T02:09:02.955Z,81.12
2023-04-29T02:12:08.069Z,79.97
2023-04-29T02:15:10.902Z,79.51
2023-04-29T02:18:13.651Z,78.20
2023-04-29T02:21:16.734Z,77.89
2023-04-29T02:24:19.649Z,77.62
2023-04-29T02:27:24.056Z,78.42
2023-04-29T02:30:26.911Z,77.26
2023-04-29T02:33:30.336Z,77.89
2023-04-29T02:36:33.005Z,77.19
2023-04-29T02:39:35.949Z,77.54
2023-04-29T02:42:38.899Z,77.10
2023-04-29T02:45:42.871Z,76.85
2023-04-29T02:51:50.276Z,76.95
2023-04-29T02:54:53.685Z,79.43
2023-04-29T02:57:56.431Z,79.55
2023-04-29T03:00:59.284Z,78.49
2023-04-29T03:04:02.412Z,79.47
2023-04-29T03:07:05.740Z,77.76
2023-04-29T03:10:09.349Z,78.15
2023-04-29T03:13:15.803Z,78.05
2023-04-29T03:16:20.003Z,79.08
2023-04-29T03:19:22.917Z,77.10
2023-04-29T03:22:27.034Z,78.17
2023-04-29T03:25:30.517Z,78.01
2023-04-29T03:28:36.465Z,78.01
2023-04-29T03:31:39.426Z,80.45
2023-04-29T03:34:42.438Z,81.39
2023-04-29T03:37:56.398Z,82.69
2023-04-29T03:41:04.689Z,83.12
2023-04-29T03:44:07.828Z,82.13
2023-04-29T03:47:10.601Z,82.15
2023-04-29T03:50:13.596Z,80.99
2023-04-29T03:53:17.658Z,80.38
2023-04-29T03:56:20.911Z,79.95
2023-04-29T03:59:23.682Z,80.31
2023-04-29T04:02:28.114Z,80.17
2023-04-29T04:05:31.564Z,80.47
2023-04-29T04:08:41.765Z,80.25
2023-04-29T04:11:51.177Z,79.42
2023-04-29T04:14:55.859Z,79.60
2023-04-29T04:17:58.629Z,80.71
2023-04-29T04:21:06.852Z,78.88
2023-04-29T04:24:12.081Z,78.41
2023-04-29T04:27:15.205Z,78.06
2023-04-29T04:30:22.118Z,87.27
2023-04-29T04:33:26.981Z,83.22
2023-04-29T04:36:29.817Z,83.94
2023-04-29T04:39:33.175Z,84.67
2023-04-29T04:42:36.525Z,83.00
2023-04-29T04:45:39.394Z,81.02
2023-04-29T04:48:43.506Z,78.00
2023-04-29T04:51:49.270Z,80.22
2023-04-29T04:54:52.160Z,78.20
2023-04-29T04:57:59.647Z,78.46
2023-04-29T05:01:03.151Z,78.90
2023-04-29T05:04:06.261Z,79.33
2023-04-29T05:07:09.529Z,78.65
2023-04-29T05:10:33.739Z,76.12
2023-04-29T05:13:37.872Z,73.43
2023-04-29T05:16:40.930Z,72.73
2023-04-29T05:19:44.256Z,70.35
2023-04-29T05:22:47.832Z,69.62
2023-04-29T05:25:51.185Z,71.29
2023-04-29T05:28:54.338Z,70.88
2023-04-29T05:31:59.689Z,71.94
2023-04-29T05:35:03.725Z,70.31
2023-04-29T05:38:08.128Z,70.45
2023-04-29T05:41:17.072Z,72.49
2023-04-29T05:44:23.479Z,70.77
2023-04-29T05:47:26.494Z,71.31
2023-04-29T05:50:29.412Z,70.17
2023-04-29T05:53:33.612Z,68.34
2023-04-29T05:56:36.472Z,68.16
2023-04-29T05:59:39.591Z,68.44
2023-04-29T06:02:51.049Z,67.19
2023-04-29T06:06:01.451Z,67.72
2023-04-29T06:09:27.874Z,67.98
2023-04-29T06:12:35.072Z,67.27
2023-04-29T06:15:37.980Z,65.90
2023-04-29T06:18:41.828Z,65.04
2023-04-29T06:21:44.721Z,64.74
2023-04-29T06:24:50.020Z,67.66
2023-04-29T06:28:08.309Z,67.94
2023-04-29T06:31:11.254Z,67.35
2023-04-29T06:34:14.353Z,67.41
2023-04-29T06:37:37.993Z,67.37
2023-04-29T06:41:01.381Z,68.81
2023-04-29T06:44:36.921Z,70.07
2023-04-29T06:47:59.902Z,67.90
2023-04-29T06:51:14.437Z,67.38
2023-04-29T06:54:17.340Z,66.67
2023-04-29T06:57:21.269Z,66.61
2023-04-29T07:00:24.212Z,65.49
2023-04-29T07:03:31.046Z,66.24
2023-04-29T07:06:34.051Z,65.63
2023-04-29T07:09:37.235Z,68.20
2023-04-29T07:12:40.485Z,69.46
2023-04-29T07:15:43.516Z,69.49
2023-04-29T07:18:46.399Z,68.64
2023-04-29T07:21:49.300Z,68.68
2023-04-29T07:24:56.076Z,70.13
2023-04-29T07:27:58.960Z,71.06
2023-04-29T07:31:01.848Z,71.23
2023-04-29T07:34:04.978Z,70.94
2023-04-29T07:37:07.856Z,71.55
2023-04-29T07:40:10.910Z,72.20
2023-04-29T07:43:14.372Z,73.27
2023-04-29T07:46:18.576Z,72.64
2023-04-29T07:49:21.337Z,72.90
2023-04-29T07:52:24.156Z,73.06
2023-04-29T07:55:27.702Z,73.22
2023-04-29T07:58:32.667Z,73.87
2023-04-29T08:01:35.787Z,71.61
2023-04-29T08:04:42.848Z,70.39
2023-04-29T08:07:52.084Z,70.00
2023-04-29T08:10:54.938Z,70.33
2023-04-29T08:14:00.569Z,70.83
2023-04-29T08:17:06.807Z,70.52
2023-04-29T08:20:09.969Z,70.58
2023-04-29T08:23:13.105Z,69.98
2023-04-29T08:26:16.067Z,69.55
2023-04-29T08:29:18.839Z,69.53
2023-04-29T08:32:21.534Z,69.55
2023-04-29T08:35:24.348Z,69.52
2023-04-29T08:38:27.543Z,69.39
2023-04-29T08:41:33.002Z,69.00
2023-04-29T08:44:37.138Z,69.14
2023-04-29T08:47:40.402Z,68.79
2023-04-29T08:50:43.683Z,69.04
2023-04-29T08:53:46.785Z,69.44
2023-04-29T08:56:49.591Z,68.76
2023-04-29T08:59:52.483Z,68.50
2023-04-29T09:02:57.075Z,68.58
2023-04-29T09:06:01.542Z,69.39
2023-04-29T09:09:04.712Z,69.40
2023-04-29T09:12:09.673Z,69.39
2023-04-29T09:15:12.488Z,68.99
2023-04-29T09:18:48.218Z,68.83
2023-04-29T09:21:57.492Z,68.67
2023-04-29T09:25:13.190Z,68.11
2023-04-29T09:28:17.254Z,67.50
2023-04-29T09:31:28.294Z,66.74
2023-04-29T09:34:33.086Z,65.44
2023-04-29T09:37:35.879Z,65.82
2023-04-29T09:40:54.483Z,64.25
2023-04-29T09:44:08.964Z,63.10
2023-04-29T09:47:13.575Z,64.05
2023-04-29T09:50:18.433Z,63.42
2023-04-29T09:53:30.245Z,63.24
2023-04-29T09:56:49.903Z,63.38
2023-04-29T09:59:52.740Z,62.79
2023-04-29T10:02:59.488Z,61.63
2023-04-29T10:06:06.835Z,63.64
2023-04-29T10:09:15.924Z,62.58
2023-04-29T10:12:20.703Z,63.07
2023-04-29T10:15:37.921Z,61.07
2023-04-29T10:18:42.590Z,60.98
2023-04-29T10:21:47.186Z,60.95
2023-04-29T10:24:52.796Z,60.05
2023-04-29T10:27:56.406Z,60.77
2023-04-29T10:31:06.154Z,60.36
2023-04-29T10:34:09.055Z,60.55
2023-04-29T10:37:12.785Z,60.62
2023-04-29T10:40:31.098Z,59.03
2023-04-29T10:43:34.030Z,60.12
2023-04-29T10:46:38.338Z,60.07
2023-04-29T10:49:41.685Z,58.93
2023-04-29T10:52:58.229Z,58.86
2023-04-29T10:56:06.697Z,59.55
2023-04-29T10:59:18.857Z,59.56
2023-04-29T11:02:21.966Z,59.37
2023-04-29T11:05:32.625Z,58.30
2023-04-29T11:08:41.505Z,58.29
2023-04-29T11:11:53.155Z,57.26
2023-04-29T11:15:05.214Z,58.23
2023-04-29T11:18:16.420Z,56.45
2023-04-29T11:21:21.091Z,56.69
2023-04-29T11:24:31.535Z,56.82
2023-04-29T11:27:43.057Z,57.63
2023-04-29T11:30:47.234Z,58.20
2023-04-29T11:33:50.335Z,58.51
2023-04-29T11:36:54.173Z,59.01
2023-04-29T11:40:03.875Z,58.12
2023-04-29T11:43:19.677Z,58.91
2023-04-29T11:46:22.723Z,59.67
2023-04-29T11:49:31.934Z,59.83
2023-04-29T11:52:40.742Z,60.05
2023-04-29T11:55:44.072Z,60.15
2023-04-29T11:58:47.462Z,60.01
2023-04-29T12:01:51.344Z,60.59
2023-04-29T12:04:59.183Z,60.88
2023-04-29T12:08:02.390Z,60.63
2023-04-29T12:11:08.001Z,60.69
2023-04-29T12:14:11.666Z,61.46
2023-04-29T12:17:18.629Z,61.75
2023-04-29T12:20:24.714Z,62.61
2023-04-29T12:23:28.135Z,62.61
2023-04-29T12:26:36.356Z,61.60
2023-04-29T12:29:43.211Z,61.86
2023-04-29T12:32:50.098Z,62.78
2023-04-29T12:35:59.980Z,61.42
2023-04-29T12:39:13.753Z,60.61
2023-04-29T12:42:20.000Z,61.76
2023-04-29T12:45:34.679Z,61.73
2023-04-29T12:48:45.037Z,61.91
2023-04-29T12:51:54.333Z,60.10
2023-04-29T12:54:58.695Z,58.75
2023-04-29T12:58:06.261Z,57.06
2023-04-29T13:01:18.880Z,58.38
2023-04-29T13:04:32.823Z,56.94
2023-04-29T13:07:39.714Z,57.42
2023-04-29T13:10:53.692Z,57.37
2023-04-29T13:17:04.830Z,57.38
2023-04-29T13:20:15.252Z,57.13
2023-04-29T13:23:26.289Z,56.17
2023-04-29T13:26:36.672Z,57.45
2023-04-29T13:29:39.723Z,58.57
2023-04-29T13:32:49.787Z,57.60
2023-04-29T13:36:00.175Z,56.40
2023-04-29T13:39:11.426Z,56.41
2023-04-29T13:42:18.555Z,58.27
2023-04-29T13:45:21.705Z,58.65
2023-04-29T13:49:10.236Z,59.05
2023-04-29T14:02:14.957Z,60.83
2023-04-29T14:04:49.225Z,60.67
2023-04-29T14:07:54.969Z,60.21
2023-04-29T14:10:58.953Z,60.17
2023-04-29T14:14:06.217Z,60.37
2023-04-29T14:17:10.069Z,61.67
2023-04-29T14:20:16.761Z,61.26
2023-04-29T14:23:20.018Z,60.33
2023-04-29T14:26:28.281Z,60.48
2023-04-29T14:29:31.885Z,60.81
2023-04-29T14:32:34.780Z,60.99
2023-04-29T14:35:37.685Z,61.42
2023-04-29T14:38:40.820Z,61.00
2023-04-29T14:41:43.631Z,59.90
2023-04-29T14:44:46.399Z,59.74
2023-04-29T14:47:49.282Z,59.38
2023-04-29T14:50:52.172Z,59.87
2023-04-29T14:53:54.924Z,59.59
2023-04-29T14:56:57.822Z,59.95
2023-04-29T15:00:00.681Z,59.50
2023-04-29T15:03:05.430Z,60.15
2023-04-29T15:06:08.572Z,59.62
2023-04-29T15:09:11.275Z,58.83
2023-04-29T15:12:16.993Z,58.82
2023-04-29T15:15:20.467Z,59.20
2023-04-29T15:18:26.802Z,59.86
2023-04-29T15:21:30.559Z,59.57
2023-04-29T15:24:33.581Z,59.43
2023-04-29T15:27:37.383Z,59.51
2023-04-29T15:30:40.135Z,59.61
2023-04-29T15:33:43.305Z,60.60
2023-04-29T15:36:46.557Z,60.27
2023-04-29T15:39:49.266Z,60.35
2023-04-29T15:42:52.293Z,60.59
2023-04-29T15:45:56.423Z,60.86
2023-04-29T15:48:59.421Z,60.32
2023-04-29T15:52:02.652Z,60.81
2023-04-29T15:55:06.711Z,61.56
2023-04-29T15:58:09.461Z,61.69
2023-04-29T16:01:12.545Z,62.11
2023-04-29T16:04:15.318Z,61.61
2023-04-29T16:07:18.770Z,61.68
2023-04-29T16:10:21.992Z,62.66
2023-04-29T16:13:24.994Z,62.36
2023-04-29T16:16:28.162Z,61.72
2023-04-29T16:19:31.015Z,61.29
2023-04-29T16:22:36.273Z,60.75
2023-04-29T16:25:40.879Z,61.03
2023-04-29T16:28:43.778Z,60.77
2023-04-29T16:31:47.212Z,61.01
2023-04-29T16:34:50.477Z,61.23
2023-04-29T16:37:53.760Z,59.86
2023-04-29T16:40:56.790Z,61.04
2023-04-29T16:43:59.904Z,61.50
2023-04-29T16:47:03.484Z,61.10
2023-04-29T16:50:08.755Z,61.32
2023-04-29T16:53:15.833Z,61.88
2023-04-29T16:56:19.443Z,62.55
2023-04-29T16:59:22.460Z,62.50
2023-04-29T17:02:25.880Z,62.89
2023-04-29T17:05:29.138Z,63.50
2023-04-29T17:08:32.396Z,63.88
2023-04-29T17:11:35.313Z,63.96
2023-04-29T17:14:40.251Z,64.19
2023-04-29T17:17:43.500Z,64.84
2023-04-29T17:20:48.115Z,64.57
2023-04-29T17:23:53.777Z,64.19
2023-04-29T17:26:56.821Z,63.99
2023-04-29T17:29:59.980Z,64.17
2023-04-29T17:33:09.206Z,64.07
2023-04-29T17:36:15.153Z,65.21
2023-04-29T17:39:18.110Z,66.00
2023-04-29T17:42:24.276Z,66.64
2023-04-29T17:45:27.151Z,66.61
2023-04-29T17:48:30.311Z,66.77
2023-04-29T17:51:36.110Z,67.47
2023-04-29T17:54:40.466Z,68.59
2023-04-29T17:57:43.400Z,69.55
2023-04-29T18:00:46.742Z,69.49
2023-04-29T18:03:51.779Z,69.60
2023-04-29T18:06:54.702Z,69.81
2023-04-29T18:09:57.923Z,69.48
2023-04-29T18:13:03.812Z,68.92
2023-04-29T18:16:08.262Z,68.86
2023-04-29T18:19:11.465Z,68.49
2023-04-29T18:22:14.352Z,68.79
2023-04-29T18:25:17.668Z,69.07
2023-04-29T18:28:25.397Z,69.40
2023-04-29T18:31:30.911Z,70.86
2023-04-29T18:34:33.838Z,71.34
2023-04-29T18:37:36.684Z,71.81
2023-04-29T18:40:39.812Z,71.93
2023-04-29T18:43:42.567Z,71.61
2023-04-29T18:46:45.522Z,71.99
2023-04-29T18:49:48.679Z,71.21
2023-04-29T18:52:51.488Z,71.46
2023-04-29T18:55:54.580Z,71.79
2023-04-29T18:58:57.983Z,71.56
2023-04-29T19:02:01.316Z,71.71
2023-04-29T19:05:07.053Z,71.92
2023-04-29T19:08:10.032Z,71.83
2023-04-29T19:11:13.017Z,71.59
2023-04-29T19:14:15.883Z,71.89
2023-04-29T19:17:18.766Z,73.89
2023-04-29T19:20:21.660Z,74.61
2023-04-29T19:23:24.622Z,74.56
2023-04-29T19:26:27.599Z,73.47
2023-04-29T19:29:30.329Z,74.26
2023-04-29T19:32:33.288Z,73.73
2023-04-29T19:35:36.170Z,73.91
2023-04-29T19:38:39.077Z,73.90
2023-04-29T19:41:42.085Z,74.37
2023-04-29T19:44:45.205Z,75.44
2023-04-29T19:47:50.311Z,75.04
2023-04-29T19:50:53.408Z,74.89
2023-04-29T19:53:56.976Z,74.22
2023-04-29T19:57:00.270Z,74.12
2023-04-29T20:00:04.585Z,75.07
2023-04-29T20:03:09.048Z,74.74
2023-04-29T20:06:12.110Z,74.64
2023-04-29T20:09:16.010Z,75.53
2023-04-29T20:12:18.983Z,75.51
2023-04-29T20:15:22.025Z,75.89
2023-04-29T20:18:24.957Z,75.77
2023-04-29T20:21:28.132Z,75.83
2023-04-29T20:24:31.075Z,75.98
2023-04-29T20:27:34.052Z,77.45
2023-04-29T20:30:37.204Z,77.38
2023-04-29T20:33:40.015Z,77.14
2023-04-29T20:36:42.959Z,76.74
2023-04-29T20:39:46.965Z,76.59
2023-04-29T20:42:50.051Z,77.33
2023-04-29T20:45:53.147Z,76.84
2023-04-29T20:48:56.026Z,76.68
2023-04-29T20:52:00.280Z,76.92
2023-04-29T20:55:03.407Z,78.29
2023-04-29T20:58:06.361Z,78.10
2023-04-29T21:01:09.465Z,77.81
2023-04-29T21:04:12.321Z,77.30
2023-04-29T21:07:15.196Z,78.06
2023-04-29T21:10:18.309Z,77.66
2023-04-29T21:13:21.102Z,77.60
2023-04-29T21:16:23.864Z,77.23
2023-04-29T21:19:26.790Z,76.91
2023-04-29T21:22:29.599Z,77.16
2023-04-29T21:25:32.293Z,77.32
2023-04-29T21:28:35.098Z,77.43
2023-04-29T21:31:37.922Z,77.76
2023-04-29T21:34:41.027Z,77.56
2023-04-29T21:37:46.096Z,77.87
2023-04-29T21:40:48.973Z,79.09
2023-04-29T21:43:53.417Z,79.32
2023-04-29T21:46:57.132Z,79.80
2023-04-29T21:50:01.005Z,79.39
2023-04-29T21:53:03.884Z,79.24
2023-04-29T21:56:07.262Z,80.57
2023-04-29T21:59:09.967Z,79.81
2023-04-29T22:02:22.353Z,79.83
2023-04-29T22:05:25.548Z,80.23
2023-04-29T22:08:28.376Z,79.93
2023-04-29T22:11:31.401Z,80.21
2023-04-29T22:14:34.226Z,80.92
2023-04-29T22:17:37.065Z,81.12
2023-04-29T22:20:39.868Z,81.07
2023-04-29T22:23:43.128Z,80.51
2023-04-29T22:26:46.802Z,82.67
2023-04-29T22:29:50.051Z,82.45
2023-04-29T22:32:52.841Z,82.26
2023-04-29T22:35:55.772Z,80.22
2023-04-29T22:38:59.098Z,79.93
2023-04-29T22:42:04.962Z,81.72
2023-04-29T22:45:08.556Z,81.20
2023-04-29T22:48:11.271Z,86.59
2023-04-29T22:51:14.107Z,90.77
2023-04-29T22:54:16.928Z,91.89
2023-04-29T22:57:19.755Z,92.37
2023-04-29T23:00:22.687Z,92.03
2023-04-29T23:03:25.837Z,94.71
2023-04-29T23:06:29.002Z,93.88
2023-04-29T23:09:32.008Z,94.19
2023-04-29T23:12:35.033Z,94.63
2023-04-29T23:15:37.961Z,94.78
2023-04-29T23:18:41.070Z,95.44
2023-04-29T23:21:44.131Z,95.10
2023-04-29T23:24:47.012Z,95.79
2023-04-29T23:27:49.804Z,96.44
2023-04-29T23:30:52.693Z,96.63
2023-04-29T23:33:55.691Z,96.46
2023-04-29T23:36:58.840Z,95.46
2023-04-29T23:40:01.701Z,97.12
2023-04-29T23:43:04.685Z,97.22
2023-04-29T23:46:07.459Z,97.68
2023-04-29T23:49:10.932Z,97.23
2023-04-29T23:52:13.870Z,97.44
2023-04-29T23:55:16.646Z,98.41
2023-04-29T23:58:19.567Z,97.98
